Hayase Maru — JD2583 — position and weather

sailwx.info

Track history (hours):
 
Tides and Currents Weather Stations Pressure Air Temp Water Temp Dewpoint Dewpoint Depression Visibility Wind Speed Wind Dir Waves Ship Positions

Hayase Maru

Last reported at 2016-Aug-27 14:33 UTC. Time now 2016-Aug-27 15:12 UTC.
Position N 35°41' E 139°59'.

Length 73 m; draft 4 m.

Type: Ship. MMSI: 431000395.

Date/timePositionNaut miles runAvg speedWind from/ knotsBaromVisibWave heightAir tempDewpointWater temp
2016-Aug-27 14:33N 35°41' E 139°59'0 0.0
2016-Aug-27 13:33N 35°41' E 139°59'0 0.0
2016-Aug-27 12:33N 35°41' E 139°59'0 0.0
2016-Aug-27 11:33N 35°41' E 139°59'0 0.0
2016-Aug-27 10:33N 35°41' E 139°59'0 0.0
2016-Aug-27 09:33N 35°41' E 139°59'0 0.0
2016-Aug-27 08:33N 35°41' E 139°59'0 0.0
2016-Aug-27 07:33N 35°41' E 139°59'0 0.0
2016-Aug-27 06:33N 35°41' E 139°59'0 0.0
2016-Aug-27 04:32N 35°41' E 139°59'0 0.0
2016-Aug-27 03:33N 35°41' E 139°59'0 0.0
2016-Aug-27 02:33N 35°41' E 139°59'0 0.0
2016-Aug-27 01:33N 35°41' E 139°59'0 0.0
2016-Aug-27 00:33N 35°41' E 139°59'0 0.0
2016-Aug-26 23:33N 35°41' E 139°59'0 0.0
2016-Aug-26 22:33N 35°41' E 139°59'0 0.0
2016-Aug-26 21:33N 35°41' E 139°59'0 0.0
2016-Aug-26 20:33N 35°41' E 139°59'0 0.0
2016-Aug-26 19:33N 35°41' E 139°59'0 0.0
2016-Aug-26 18:33N 35°41' E 139°59'0 0.0
2016-Aug-26 17:33N 35°41' E 139°59'0 0.0
2016-Aug-26 16:33N 35°41' E 139°59'0 0.0
2016-Aug-26 15:33N 35°41' E 139°59'0 0.0
2016-Aug-26 14:33N 35°41' E 139°59'0 0.0
2016-Aug-26 13:33N 35°41' E 139°59'0 0.0
2016-Aug-26 12:33N 35°41' E 139°59'0 0.0
2016-Aug-26 11:33N 35°41' E 139°59'0 0.0
2016-Aug-26 10:33N 35°41' E 139°59'0 0.0
2016-Aug-26 09:33N 35°41' E 139°59'0 0.0
2016-Aug-26 08:33N 35°41' E 139°59'0 0.0
2016-Aug-26 07:33N 35°41' E 139°59'0 0.0
2016-Aug-26 06:33N 35°41' E 139°59'6 3.0
2016-Aug-26 04:33N 35°35' E 139°57'1211.6
2016-Aug-26 03:33N 35°26' E 139°48'1010.0
2016-Aug-26 02:33N 35°16' E 139°47'1110.7
2016-Aug-26 01:31N 35°05' E 139°43'  
2016-Aug-23 08:21N 34°35' E 134°51'810.4
2016-Aug-23 07:33N 34°38' E 135°00'1010.5
2016-Aug-23 06:33N 34°37' E 135°13'1211.7
2016-Aug-23 05:33N 34°39' E 135°27'0 0.1
2016-Aug-23 02:23N 34°39' E 135°27'0 0.0
2016-Aug-23 01:32N 34°39' E 135°27'0 0.0
2016-Aug-23 00:33N 34°39' E 135°27'0 0.0
2016-Aug-22 23:33N 34°39' E 135°27'1 0.9
2016-Aug-22 22:33N 34°39' E 135°26'3 1.3
2016-Aug-22 20:18N 34°37' E 135°23'0 0.0
2016-Aug-22 19:06N 34°37' E 135°23'0 0.0
2016-Aug-22 18:30N 34°37' E 135°23'0 0.0
2016-Aug-22 11:18N 34°37' E 135°23'0 0.0
2016-Aug-22 10:24N 34°37' E 135°23'0 0.0
2016-Aug-22 09:30N 34°37' E 135°23'0 0.0
2016-Aug-22 08:30N 34°37' E 135°23'0 0.0
2016-Aug-22 07:24N 34°37' E 135°23'0 0.1
2016-Aug-22 06:06N 34°37' E 135°23'0 0.0
2016-Aug-22 05:30N 34°37' E 135°23'0 0.1
2016-Aug-22 04:24N 34°37' E 135°23'6 6.6
2016-Aug-22 03:33N 34°39' E 135°16'3 2.6
2016-Aug-22 02:24N 34°40' E 135°13'0 0.0
2016-Aug-22 01:30N 34°40' E 135°13'0 0.0
2016-Aug-22 00:33N 34°40' E 135°13'4 4.0
2016-Aug-21 23:33N 34°37' E 135°16'0 0.3
2016-Aug-21 22:31N 34°37' E 135°16'0 0.0
2016-Aug-21 21:25N 34°37' E 135°16'0 0.0
2016-Aug-21 20:31N 34°37' E 135°16'0 0.0
2016-Aug-21 19:31N 34°37' E 135°16'0 0.0
2016-Aug-21 18:31N 34°37' E 135°16'0 0.0
2016-Aug-21 17:31N 34°37' E 135°16'2 1.8
2016-Aug-21 16:32N 34°35' E 135°14'1010.5
2016-Aug-21 15:33N 34°36' E 135°02'  
2016-Aug-18 06:27N 34°41' E 134°48'8 8.8
2016-Aug-18 05:34N 34°37' E 134°56'7 6.7
2016-Aug-18 04:33N 34°36' E 135°04'20 9.4
2016-Aug-18 02:25N 34°16' E 135°00'6 7.1
2016-Aug-18 01:33N 34°15' E 135°07'0 0.0
2016-Aug-18 00:33N 34°15' E 135°07'0 0.0
2016-Aug-17 23:28N 34°15' E 135°07'0 0.0
2016-Aug-17 22:25N 34°15' E 135°07'0 0.0
2016-Aug-17 21:31N 34°15' E 135°07'0 0.0
2016-Aug-17 20:31N 34°15' E 135°07'0 0.0
2016-Aug-17 19:31N 34°15' E 135°07'0 0.0
2016-Aug-17 18:28N 34°15' E 135°07'0 0.0
2016-Aug-17 17:31N 34°15' E 135°07'0 0.0
2016-Aug-17 16:31N 34°15' E 135°07'0 0.0
2016-Aug-17 15:31N 34°15' E 135°07'  
Track history (hours):
 
Tides and Currents Weather Stations Pressure Air Temp Water Temp Dewpoint Dewpoint Depression Visibility Wind Speed Wind Dir Waves Ship Positions

Hayase Maru

Last reported at 2016-Aug-27 14:33 UTC. Time now 2016-Aug-27 15:12 UTC.
Position N 35°41' E 139°59'.

Length 73 m; draft 4 m.

Type: Ship. MMSI: 431000395.

Date/timePositionNaut miles runAvg speedWind from/ knotsBaromVisibWave heightAir tempDewpointWater temp
2016-Aug-27 14:33N 35°41' E 139°59'0 0.0
2016-Aug-27 13:33N 35°41' E 139°59'0 0.0
2016-Aug-27 12:33N 35°41' E 139°59'0 0.0
2016-Aug-27 11:33N 35°41' E 139°59'0 0.0
2016-Aug-27 10:33N 35°41' E 139°59'0 0.0
2016-Aug-27 09:33N 35°41' E 139°59'0 0.0
2016-Aug-27 08:33N 35°41' E 139°59'0 0.0
2016-Aug-27 07:33N 35°41' E 139°59'0 0.0
2016-Aug-27 06:33N 35°41' E 139°59'0 0.0
2016-Aug-27 04:32N 35°41' E 139°59'0 0.0
2016-Aug-27 03:33N 35°41' E 139°59'0 0.0
2016-Aug-27 02:33N 35°41' E 139°59'0 0.0
2016-Aug-27 01:33N 35°41' E 139°59'0 0.0
2016-Aug-27 00:33N 35°41' E 139°59'0 0.0
2016-Aug-26 23:33N 35°41' E 139°59'0 0.0
2016-Aug-26 22:33N 35°41' E 139°59'0 0.0
2016-Aug-26 21:33N 35°41' E 139°59'0 0.0
2016-Aug-26 20:33N 35°41' E 139°59'0 0.0
2016-Aug-26 19:33N 35°41' E 139°59'0 0.0
2016-Aug-26 18:33N 35°41' E 139°59'0 0.0
2016-Aug-26 17:33N 35°41' E 139°59'0 0.0
2016-Aug-26 16:33N 35°41' E 139°59'0 0.0
2016-Aug-26 15:33N 35°41' E 139°59'0 0.0
2016-Aug-26 14:33N 35°41' E 139°59'0 0.0
2016-Aug-26 13:33N 35°41' E 139°59'0 0.0
2016-Aug-26 12:33N 35°41' E 139°59'0 0.0
2016-Aug-26 11:33N 35°41' E 139°59'0 0.0
2016-Aug-26 10:33N 35°41' E 139°59'0 0.0
2016-Aug-26 09:33N 35°41' E 139°59'0 0.0
2016-Aug-26 08:33N 35°41' E 139°59'0 0.0
2016-Aug-26 07:33N 35°41' E 139°59'0 0.0
2016-Aug-26 06:33N 35°41' E 139°59'6 3.0
2016-Aug-26 04:33N 35°35' E 139°57'1211.6
2016-Aug-26 03:33N 35°26' E 139°48'1010.0
2016-Aug-26 02:33N 35°16' E 139°47'1110.7
2016-Aug-26 01:31N 35°05' E 139°43'  
2016-Aug-23 08:21N 34°35' E 134°51'810.4
2016-Aug-23 07:33N 34°38' E 135°00'1010.5
2016-Aug-23 06:33N 34°37' E 135°13'1211.7
2016-Aug-23 05:33N 34°39' E 135°27'0 0.1
2016-Aug-23 02:23N 34°39' E 135°27'0 0.0
2016-Aug-23 01:32N 34°39' E 135°27'0 0.0
2016-Aug-23 00:33N 34°39' E 135°27'0 0.0
2016-Aug-22 23:33N 34°39' E 135°27'1 0.9
2016-Aug-22 22:33N 34°39' E 135°26'3 1.3
2016-Aug-22 20:18N 34°37' E 135°23'0 0.0
2016-Aug-22 19:06N 34°37' E 135°23'0 0.0
2016-Aug-22 18:30N 34°37' E 135°23'0 0.0
2016-Aug-22 11:18N 34°37' E 135°23'0 0.0
2016-Aug-22 10:24N 34°37' E 135°23'0 0.0
2016-Aug-22 09:30N 34°37' E 135°23'0 0.0
2016-Aug-22 08:30N 34°37' E 135°23'0 0.0
2016-Aug-22 07:24N 34°37' E 135°23'0 0.1
2016-Aug-22 06:06N 34°37' E 135°23'0 0.0
2016-Aug-22 05:30N 34°37' E 135°23'0 0.1
2016-Aug-22 04:24N 34°37' E 135°23'6 6.6
2016-Aug-22 03:33N 34°39' E 135°16'3 2.6
2016-Aug-22 02:24N 34°40' E 135°13'0 0.0
2016-Aug-22 01:30N 34°40' E 135°13'0 0.0
2016-Aug-22 00:33N 34°40' E 135°13'4 4.0
2016-Aug-21 23:33N 34°37' E 135°16'0 0.3
2016-Aug-21 22:31N 34°37' E 135°16'0 0.0
2016-Aug-21 21:25N 34°37' E 135°16'0 0.0
2016-Aug-21 20:31N 34°37' E 135°16'0 0.0
2016-Aug-21 19:31N 34°37' E 135°16'0 0.0
2016-Aug-21 18:31N 34°37' E 135°16'0 0.0
2016-Aug-21 17:31N 34°37' E 135°16'2 1.8
2016-Aug-21 16:32N 34°35' E 135°14'1010.5
2016-Aug-21 15:33N 34°36' E 135°02'  
2016-Aug-18 06:27N 34°41' E 134°48'8 8.8
2016-Aug-18 05:34N 34°37' E 134°56'7 6.7
2016-Aug-18 04:33N 34°36' E 135°04'20 9.4
2016-Aug-18 02:25N 34°16' E 135°00'6 7.1
2016-Aug-18 01:33N 34°15' E 135°07'0 0.0
2016-Aug-18 00:33N 34°15' E 135°07'0 0.0
2016-Aug-17 23:28N 34°15' E 135°07'0 0.0
2016-Aug-17 22:25N 34°15' E 135°07'0 0.0
2016-Aug-17 21:31N 34°15' E 135°07'0 0.0
2016-Aug-17 20:31N 34°15' E 135°07'0 0.0
2016-Aug-17 19:31N 34°15' E 135°07'0 0.0
2016-Aug-17 18:28N 34°15' E 135°07'0 0.0
2016-Aug-17 17:31N 34°15' E 135°07'0 0.0
2016-Aug-17 16:31N 34°15' E 135°07'0 0.0
2016-Aug-17 15:31N 34°15' E 135°07'  

Dump ship's entire track history